sensor_id;sensor_type;location;lat;lon;timestamp;P1;durP1;ratioP1;P2;durP2;ratioP2
51907;SDS011;39320;53.214;6.556;2024-01-30T00:01:55;6.10;;;5.60;;
51907;SDS011;39320;53.214;6.556;2024-01-30T00:04:20;5.90;;;5.50;;
51907;SDS011;39320;53.214;6.556;2024-01-30T00:06:46;5.82;;;5.43;;
51907;SDS011;39320;53.214;6.556;2024-01-30T00:09:12;5.75;;;5.35;;
51907;SDS011;39320;53.214;6.556;2024-01-30T00:11:38;6.07;;;5.57;;
51907;SDS011;39320;53.214;6.556;2024-01-30T00:14:04;5.10;;;4.70;;
51907;SDS011;39320;53.214;6.556;2024-01-30T00:16:30;5.60;;;5.20;;
51907;SDS011;39320;53.214;6.556;2024-01-30T00:18:56;4.93;;;4.40;;
51907;SDS011;39320;53.214;6.556;2024-01-30T00:21:22;5.57;;;5.18;;
51907;SDS011;39320;53.214;6.556;2024-01-30T00:23:48;5.28;;;4.88;;
51907;SDS011;39320;53.214;6.556;2024-01-30T00:26:14;5.82;;;5.43;;
51907;SDS011;39320;53.214;6.556;2024-01-30T00:28:43;5.13;;;4.82;;
51907;SDS011;39320;53.214;6.556;2024-01-30T00:31:09;6.10;;;5.60;;
51907;SDS011;39320;53.214;6.556;2024-01-30T00:33:40;5.53;;;5.05;;
51907;SDS011;39320;53.214;6.556;2024-01-30T00:36:07;6.30;;;5.80;;
51907;SDS011;39320;53.214;6.556;2024-01-30T00:38:34;6.40;;;5.90;;
51907;SDS011;39320;53.214;6.556;2024-01-30T00:40:59;6.10;;;5.60;;
51907;SDS011;39320;53.214;6.556;2024-01-30T00:43:27;6.18;;;5.78;;
51907;SDS011;39320;53.214;6.556;2024-01-30T00:45:53;5.68;;;5.18;;
51907;SDS011;39320;53.214;6.556;2024-01-30T00:48:19;6.43;;;5.93;;
51907;SDS011;39320;53.214;6.556;2024-01-30T00:50:45;6.00;;;5.53;;
51907;SDS011;39320;53.214;6.556;2024-01-30T00:53:11;6.20;;;5.70;;
51907;SDS011;39320;53.214;6.556;2024-01-30T00:55:37;5.90;;;5.47;;
51907;SDS011;39320;53.214;6.556;2024-01-30T00:58:02;5.40;;;5.03;;
51907;SDS011;39320;53.214;6.556;2024-01-30T01:00:28;6.10;;;5.70;;
51907;SDS011;39320;53.214;6.556;2024-01-30T01:02:56;5.80;;;5.20;;
51907;SDS011;39320;53.214;6.556;2024-01-30T01:05:25;5.60;;;5.28;;
51907;SDS011;39320;53.214;6.556;2024-01-30T01:07:51;5.55;;;5.05;;
51907;SDS011;39320;53.214;6.556;2024-01-30T01:10:17;6.50;;;6.00;;
51907;SDS011;39320;53.214;6.556;2024-01-30T01:12:43;5.90;;;5.45;;
51907;SDS011;39320;53.214;6.556;2024-01-30T01:15:09;6.20;;;5.75;;
51907;SDS011;39320;53.214;6.556;2024-01-30T01:17:36;5.57;;;5.18;;
51907;SDS011;39320;53.214;6.556;2024-01-30T01:20:03;5.55;;;5.15;;
51907;SDS011;39320;53.214;6.556;2024-01-30T01:22:30;6.40;;;6.00;;
51907;SDS011;39320;53.214;6.556;2024-01-30T01:24:56;6.07;;;5.68;;
51907;SDS011;39320;53.214;6.556;2024-01-30T01:27:22;5.47;;;5.07;;
51907;SDS011;39320;53.214;6.556;2024-01-30T01:29:47;6.35;;;5.85;;
51907;SDS011;39320;53.214;6.556;2024-01-30T01:32:13;6.25;;;5.75;;
51907;SDS011;39320;53.214;6.556;2024-01-30T01:34:39;6.72;;;6.22;;
51907;SDS011;39320;53.214;6.556;2024-01-30T01:37:05;5.97;;;5.57;;
51907;SDS011;39320;53.214;6.556;2024-01-30T01:39:30;5.65;;;5.18;;
51907;SDS011;39320;53.214;6.556;2024-01-30T01:41:56;6.28;;;5.78;;
51907;SDS011;39320;53.214;6.556;2024-01-30T01:44:22;6.38;;;5.97;;
51907;SDS011;39320;53.214;6.556;2024-01-30T01:46:47;5.53;;;5.07;;
51907;SDS011;39320;53.214;6.556;2024-01-30T01:49:14;5.85;;;5.45;;
51907;SDS011;39320;53.214;6.556;2024-01-30T01:51:40;6.13;;;5.72;;
51907;SDS011;39320;53.214;6.556;2024-01-30T01:54:07;5.65;;;5.25;;
51907;SDS011;39320;53.214;6.556;2024-01-30T01:56:34;5.75;;;5.35;;
51907;SDS011;39320;53.214;6.556;2024-01-30T01:59:04;5.97;;;5.57;;
51907;SDS011;39320;53.214;6.556;2024-01-30T02:01:32;6.20;;;5.80;;
51907;SDS011;39320;53.214;6.556;2024-01-30T02:03:58;5.60;;;5.20;;
51907;SDS011;39320;53.214;6.556;2024-01-30T02:06:25;6.30;;;5.80;;
51907;SDS011;39320;53.214;6.556;2024-01-30T02:08:51;6.32;;;5.82;;
51907;SDS011;39320;53.214;6.556;2024-01-30T02:11:17;6.35;;;5.85;;
51907;SDS011;39320;53.214;6.556;2024-01-30T02:13:44;6.40;;;5.90;;
51907;SDS011;39320;53.214;6.556;2024-01-30T02:16:10;6.38;;;5.88;;
51907;SDS011;39320;53.214;6.556;2024-01-30T02:18:36;6.20;;;5.80;;
51907;SDS011;39320;53.214;6.556;2024-01-30T02:21:07;5.90;;;5.50;;
51907;SDS011;39320;53.214;6.556;2024-01-30T02:23:32;5.78;;;5.38;;
51907;SDS011;39320;53.214;6.556;2024-01-30T02:25:59;6.22;;;5.80;;
51907;SDS011;39320;53.214;6.556;2024-01-30T02:28:25;6.25;;;5.75;;
51907;SDS011;39320;53.214;6.556;2024-01-30T02:30:52;6.38;;;5.88;;
51907;SDS011;39320;53.214;6.556;2024-01-30T02:33:18;5.75;;;5.35;;
51907;SDS011;39320;53.214;6.556;2024-01-30T02:35:44;5.70;;;5.30;;
51907;SDS011;39320;53.214;6.556;2024-01-30T02:38:10;6.10;;;5.57;;
51907;SDS011;39320;53.214;6.556;2024-01-30T02:40:36;5.72;;;5.32;;
51907;SDS011;39320;53.214;6.556;2024-01-30T02:43:02;5.70;;;5.30;;
51907;SDS011;39320;53.214;6.556;2024-01-30T02:45:28;6.55;;;5.50;;
51907;SDS011;39320;53.214;6.556;2024-01-30T02:47:54;5.80;;;5.40;;
51907;SDS011;39320;53.214;6.556;2024-01-30T02:50:19;5.50;;;5.10;;
51907;SDS011;39320;53.214;6.556;2024-01-30T02:52:45;5.70;;;5.18;;
51907;SDS011;39320;53.214;6.556;2024-01-30T02:55:11;5.50;;;5.10;;
51907;SDS011;39320;53.214;6.556;2024-01-30T02:57:37;5.30;;;4.90;;
51907;SDS011;39320;53.214;6.556;2024-01-30T03:00:05;5.65;;;5.20;;
51907;SDS011;39320;53.214;6.556;2024-01-30T03:02:34;5.53;;;5.13;;
51907;SDS011;39320;53.214;6.556;2024-01-30T03:05:00;5.80;;;5.40;;
51907;SDS011;39320;53.214;6.556;2024-01-30T03:07:26;6.43;;;5.43;;
51907;SDS011;39320;53.214;6.556;2024-01-30T03:09:51;5.80;;;5.40;;
51907;SDS011;39320;53.214;6.556;2024-01-30T03:12:17;5.35;;;4.95;;
51907;SDS011;39320;53.214;6.556;2024-01-30T03:14:43;4.68;;;4.28;;
51907;SDS011;39320;53.214;6.556;2024-01-30T03:17:09;5.20;;;4.85;;
51907;SDS011;39320;53.214;6.556;2024-01-30T03:19:34;5.40;;;4.97;;
51907;SDS011;39320;53.214;6.556;2024-01-30T03:22:00;5.10;;;4.70;;
51907;SDS011;39320;53.214;6.556;2024-01-30T03:24:26;4.85;;;4.50;;
51907;SDS011;39320;53.214;6.556;2024-01-30T03:26:52;6.10;;;5.65;;
51907;SDS011;39320;53.214;6.556;2024-01-30T03:29:18;5.30;;;4.85;;
51907;SDS011;39320;53.214;6.556;2024-01-30T03:31:43;4.70;;;4.30;;
51907;SDS011;39320;53.214;6.556;2024-01-30T03:34:10;5.50;;;5.10;;
51907;SDS011;39320;53.214;6.556;2024-01-30T03:36:36;4.32;;;4.03;;
51907;SDS011;39320;53.214;6.556;2024-01-30T03:39:02;5.05;;;4.65;;
51907;SDS011;39320;53.214;6.556;2024-01-30T03:41:28;5.78;;;5.38;;
51907;SDS011;39320;53.214;6.556;2024-01-30T03:43:53;5.13;;;4.72;;
51907;SDS011;39320;53.214;6.556;2024-01-30T03:46:19;5.38;;;4.97;;
51907;SDS011;39320;53.214;6.556;2024-01-30T03:48:45;5.00;;;4.60;;
51907;SDS011;39320;53.214;6.556;2024-01-30T03:51:11;5.32;;;4.93;;
51907;SDS011;39320;53.214;6.556;2024-01-30T03:53:40;4.93;;;4.57;;
51907;SDS011;39320;53.214;6.556;2024-01-30T03:56:07;4.85;;;4.55;;
51907;SDS011;39320;53.214;6.556;2024-01-30T03:58:33;5.40;;;5.00;;
51907;SDS011;39320;53.214;6.556;2024-01-30T04:00:58;4.93;;;4.63;;
51907;SDS011;39320;53.214;6.556;2024-01-30T04:03:24;4.85;;;4.18;;
51907;SDS011;39320;53.214;6.556;2024-01-30T04:05:53;4.80;;;4.40;;
51907;SDS011;39320;53.214;6.556;2024-01-30T04:08:19;5.18;;;4.78;;
51907;SDS011;39320;53.214;6.556;2024-01-30T04:10:45;5.70;;;5.30;;
51907;SDS011;39320;53.214;6.556;2024-01-30T04:13:11;4.65;;;4.35;;
51907;SDS011;39320;53.214;6.556;2024-01-30T04:15:37;4.75;;;4.45;;
51907;SDS011;39320;53.214;6.556;2024-01-30T04:18:02;4.35;;;4.05;;
51907;SDS011;39320;53.214;6.556;2024-01-30T04:20:29;4.45;;;4.15;;
51907;SDS011;39320;53.214;6.556;2024-01-30T04:22:54;4.50;;;4.20;;
51907;SDS011;39320;53.214;6.556;2024-01-30T04:25:20;5.13;;;4.63;;
51907;SDS011;39320;53.214;6.556;2024-01-30T04:27:46;4.68;;;4.35;;
51907;SDS011;39320;53.214;6.556;2024-01-30T04:30:12;4.68;;;4.38;;
51907;SDS011;39320;53.214;6.556;2024-01-30T04:32:38;4.30;;;4.00;;
51907;SDS011;39320;53.214;6.556;2024-01-30T04:35:03;6.70;;;4.80;;
51907;SDS011;39320;53.214;6.556;2024-01-30T04:37:29;4.38;;;4.03;;
51907;SDS011;39320;53.214;6.556;2024-01-30T04:39:55;4.32;;;4.03;;
51907;SDS011;39320;53.214;6.556;2024-01-30T04:42:21;4.15;;;3.75;;
51907;SDS011;39320;53.214;6.556;2024-01-30T04:44:47;4.05;;;3.75;;
51907;SDS011;39320;53.214;6.556;2024-01-30T04:47:15;4.72;;;4.32;;
51907;SDS011;39320;53.214;6.556;2024-01-30T04:49:41;4.72;;;4.32;;
51907;SDS011;39320;53.214;6.556;2024-01-30T04:52:07;4.65;;;4.35;;
51907;SDS011;39320;53.214;6.556;2024-01-30T04:54:34;4.25;;;3.95;;
51907;SDS011;39320;53.214;6.556;2024-01-30T04:57:00;4.90;;;4.50;;
51907;SDS011;39320;53.214;6.556;2024-01-30T04:59:26;5.53;;;5.03;;
51907;SDS011;39320;53.214;6.556;2024-01-30T05:01:52;4.78;;;4.38;;
51907;SDS011;39320;53.214;6.556;2024-01-30T05:04:18;5.18;;;4.78;;
51907;SDS011;39320;53.214;6.556;2024-01-30T05:06:44;4.78;;;4.32;;
51907;SDS011;39320;53.214;6.556;2024-01-30T05:09:10;5.32;;;4.93;;
51907;SDS011;39320;53.214;6.556;2024-01-30T05:11:39;4.70;;;4.40;;
51907;SDS011;39320;53.214;6.556;2024-01-30T05:14:06;4.80;;;4.40;;
51907;SDS011;39320;53.214;6.556;2024-01-30T05:16:32;4.68;;;4.38;;
51907;SDS011;39320;53.214;6.556;2024-01-30T05:18:58;4.57;;;4.28;;
51907;SDS011;39320;53.214;6.556;2024-01-30T05:21:24;4.70;;;4.35;;
51907;SDS011;39320;53.214;6.556;2024-01-30T05:23:50;4.97;;;4.65;;
51907;SDS011;39320;53.214;6.556;2024-01-30T05:26:16;4.93;;;4.53;;
51907;SDS011;39320;53.214;6.556;2024-01-30T05:28:41;4.20;;;3.90;;
51907;SDS011;39320;53.214;6.556;2024-01-30T05:31:09;5.05;;;4.75;;
51907;SDS011;39320;53.214;6.556;2024-01-30T05:33:35;4.40;;;4.10;;
51907;SDS011;39320;53.214;6.556;2024-01-30T05:36:01;5.38;;;4.97;;
51907;SDS011;39320;53.214;6.556;2024-01-30T05:38:28;4.82;;;4.53;;
51907;SDS011;39320;53.214;6.556;2024-01-30T05:40:54;5.20;;;4.70;;
51907;SDS011;39320;53.214;6.556;2024-01-30T05:43:20;4.15;;;3.85;;
51907;SDS011;39320;53.214;6.556;2024-01-30T05:45:46;4.65;;;4.18;;
51907;SDS011;39320;53.214;6.556;2024-01-30T05:48:11;4.25;;;3.85;;
51907;SDS011;39320;53.214;6.556;2024-01-30T05:50:37;4.35;;;4.05;;
51907;SDS011;39320;53.214;6.556;2024-01-30T05:53:03;4.85;;;4.53;;
51907;SDS011;39320;53.214;6.556;2024-01-30T05:55:28;4.97;;;4.68;;
51907;SDS011;39320;53.214;6.556;2024-01-30T05:57:54;5.38;;;4.90;;
51907;SDS011;39320;53.214;6.556;2024-01-30T06:00:20;5.22;;;4.60;;
51907;SDS011;39320;53.214;6.556;2024-01-30T06:02:46;4.70;;;4.40;;
51907;SDS011;39320;53.214;6.556;2024-01-30T06:05:12;5.03;;;4.63;;
51907;SDS011;39320;53.214;6.556;2024-01-30T06:07:37;4.65;;;4.25;;
51907;SDS011;39320;53.214;6.556;2024-01-30T06:10:03;4.72;;;4.43;;
51907;SDS011;39320;53.214;6.556;2024-01-30T06:12:29;5.45;;;4.95;;
51907;SDS011;39320;53.214;6.556;2024-01-30T06:14:55;5.07;;;4.68;;
51907;SDS011;39320;53.214;6.556;2024-01-30T06:17:22;4.63;;;4.32;;
51907;SDS011;39320;53.214;6.556;2024-01-30T06:19:48;4.97;;;4.57;;
51907;SDS011;39320;53.214;6.556;2024-01-30T06:22:14;5.30;;;4.90;;
51907;SDS011;39320;53.214;6.556;2024-01-30T06:24:41;4.90;;;4.50;;
51907;SDS011;39320;53.214;6.556;2024-01-30T06:27:06;4.57;;;4.18;;
51907;SDS011;39320;53.214;6.556;2024-01-30T06:29:32;4.75;;;4.35;;
51907;SDS011;39320;53.214;6.556;2024-01-30T06:31:58;4.40;;;4.10;;
51907;SDS011;39320;53.214;6.556;2024-01-30T06:34:24;4.38;;;4.07;;
51907;SDS011;39320;53.214;6.556;2024-01-30T06:36:51;3.97;;;3.67;;
51907;SDS011;39320;53.214;6.556;2024-01-30T06:39:17;4.90;;;4.50;;
51907;SDS011;39320;53.214;6.556;2024-01-30T06:41:43;5.00;;;4.63;;
51907;SDS011;39320;53.214;6.556;2024-01-30T06:44:08;4.30;;;3.90;;
51907;SDS011;39320;53.214;6.556;2024-01-30T06:46:35;4.78;;;4.47;;
51907;SDS011;39320;53.214;6.556;2024-01-30T06:49:00;4.88;;;4.57;;
51907;SDS011;39320;53.214;6.556;2024-01-30T06:51:26;4.93;;;4.53;;
51907;SDS011;39320;53.214;6.556;2024-01-30T06:53:52;4.75;;;4.35;;
51907;SDS011;39320;53.214;6.556;2024-01-30T06:56:18;4.57;;;4.18;;
51907;SDS011;39320;53.214;6.556;2024-01-30T06:58:49;4.78;;;4.38;;
51907;SDS011;39320;53.214;6.556;2024-01-30T07:01:15;4.85;;;4.55;;
51907;SDS011;39320;53.214;6.556;2024-01-30T07:03:41;5.20;;;4.80;;
51907;SDS011;39320;53.214;6.556;2024-01-30T07:06:07;5.03;;;4.63;;
51907;SDS011;39320;53.214;6.556;2024-01-30T07:08:33;4.57;;;4.28;;
51907;SDS011;39320;53.214;6.556;2024-01-30T07:10:59;4.50;;;4.20;;
51907;SDS011;39320;53.214;6.556;2024-01-30T07:13:25;5.50;;;4.10;;
51907;SDS011;39320;53.214;6.556;2024-01-30T07:15:50;5.15;;;4.63;;
51907;SDS011;39320;53.214;6.556;2024-01-30T07:18:16;4.30;;;4.00;;
51907;SDS011;39320;53.214;6.556;2024-01-30T07:20:42;5.00;;;4.60;;
51907;SDS011;39320;53.214;6.556;2024-01-30T07:23:14;5.25;;;4.85;;
51907;SDS011;39320;53.214;6.556;2024-01-30T07:25:41;4.40;;;4.00;;
51907;SDS011;39320;53.214;6.556;2024-01-30T07:28:08;5.10;;;4.70;;
51907;SDS011;39320;53.214;6.556;2024-01-30T07:30:41;4.10;;;3.80;;
51907;SDS011;39320;53.214;6.556;2024-01-30T07:33:07;4.47;;;4.18;;
51907;SDS011;39320;53.214;6.556;2024-01-30T07:35:34;4.88;;;4.45;;
51907;SDS011;39320;53.214;6.556;2024-01-30T07:38:00;5.57;;;5.18;;
51907;SDS011;39320;53.214;6.556;2024-01-30T07:40:26;5.13;;;4.72;;
51907;SDS011;39320;53.214;6.556;2024-01-30T07:42:53;4.47;;;4.18;;
51907;SDS011;39320;53.214;6.556;2024-01-30T07:45:19;5.30;;;4.80;;
51907;SDS011;39320;53.214;6.556;2024-01-30T07:47:49;4.45;;;4.15;;
51907;SDS011;39320;53.214;6.556;2024-01-30T07:50:15;4.93;;;4.53;;
51907;SDS011;39320;53.214;6.556;2024-01-30T07:52:41;4.60;;;4.22;;
51907;SDS011;39320;53.214;6.556;2024-01-30T07:55:07;4.65;;;4.25;;
51907;SDS011;39320;53.214;6.556;2024-01-30T07:57:33;4.90;;;4.38;;
51907;SDS011;39320;53.214;6.556;2024-01-30T07:59:59;4.97;;;4.57;;
51907;SDS011;39320;53.214;6.556;2024-01-30T08:02:26;4.63;;;4.32;;
51907;SDS011;39320;53.214;6.556;2024-01-30T08:04:51;5.18;;;4.75;;
51907;SDS011;39320;53.214;6.556;2024-01-30T08:07:17;5.25;;;4.85;;
51907;SDS011;39320;53.214;6.556;2024-01-30T08:09:43;4.10;;;3.80;;
51907;SDS011;39320;53.214;6.556;2024-01-30T08:12:09;4.70;;;4.40;;
51907;SDS011;39320;53.214;6.556;2024-01-30T08:14:35;4.30;;;4.00;;
51907;SDS011;39320;53.214;6.556;2024-01-30T08:17:00;4.28;;;3.88;;
51907;SDS011;39320;53.214;6.556;2024-01-30T08:19:26;3.80;;;3.50;;
51907;SDS011;39320;53.214;6.556;2024-01-30T08:21:52;4.80;;;4.40;;
51907;SDS011;39320;53.214;6.556;2024-01-30T08:24:17;4.30;;;4.00;;
51907;SDS011;39320;53.214;6.556;2024-01-30T08:26:43;4.90;;;4.47;;
51907;SDS011;39320;53.214;6.556;2024-01-30T08:29:09;4.63;;;4.30;;
51907;SDS011;39320;53.214;6.556;2024-01-30T08:31:35;3.75;;;3.50;;
51907;SDS011;39320;53.214;6.556;2024-01-30T08:34:01;4.25;;;3.92;;
51907;SDS011;39320;53.214;6.556;2024-01-30T08:36:27;4.68;;;4.35;;
51907;SDS011;39320;53.214;6.556;2024-01-30T08:38:52;3.85;;;3.55;;
51907;SDS011;39320;53.214;6.556;2024-01-30T08:41:18;3.40;;;3.20;;
51907;SDS011;39320;53.214;6.556;2024-01-30T08:43:44;3.63;;;3.33;;
51907;SDS011;39320;53.214;6.556;2024-01-30T08:46:10;4.25;;;3.83;;
51907;SDS011;39320;53.214;6.556;2024-01-30T08:48:36;3.65;;;3.35;;
51907;SDS011;39320;53.214;6.556;2024-01-30T08:51:02;4.07;;;3.72;;
51907;SDS011;39320;53.214;6.556;2024-01-30T08:53:28;4.13;;;3.83;;
51907;SDS011;39320;53.214;6.556;2024-01-30T08:55:53;4.50;;;4.10;;
51907;SDS011;39320;53.214;6.556;2024-01-30T08:58:19;3.70;;;3.42;;
51907;SDS011;39320;53.214;6.556;2024-01-30T09:00:45;3.58;;;3.30;;
51907;SDS011;39320;53.214;6.556;2024-01-30T09:03:10;4.15;;;3.83;;
51907;SDS011;39320;53.214;6.556;2024-01-30T09:05:36;3.95;;;3.65;;
51907;SDS011;39320;53.214;6.556;2024-01-30T09:08:02;3.80;;;3.50;;
51907;SDS011;39320;53.214;6.556;2024-01-30T09:10:27;4.28;;;3.90;;
51907;SDS011;39320;53.214;6.556;2024-01-30T09:12:53;4.38;;;4.07;;
51907;SDS011;39320;53.214;6.556;2024-01-30T09:15:19;3.85;;;3.55;;
51907;SDS011;39320;53.214;6.556;2024-01-30T09:17:45;3.90;;;3.55;;
51907;SDS011;39320;53.214;6.556;2024-01-30T09:20:11;4.00;;;3.70;;
51907;SDS011;39320;53.214;6.556;2024-01-30T09:22:36;5.70;;;3.78;;
51907;SDS011;39320;53.214;6.556;2024-01-30T09:25:02;4.07;;;3.78;;
51907;SDS011;39320;53.214;6.556;2024-01-30T09:27:28;4.15;;;3.78;;
51907;SDS011;39320;53.214;6.556;2024-01-30T09:29:54;4.53;;;4.18;;
51907;SDS011;39320;53.214;6.556;2024-01-30T09:32:19;4.45;;;4.05;;
51907;SDS011;39320;53.214;6.556;2024-01-30T09:34:45;4.00;;;3.70;;
51907;SDS011;39320;53.214;6.556;2024-01-30T09:37:11;4.22;;;3.92;;
51907;SDS011;39320;53.214;6.556;2024-01-30T09:39:37;4.35;;;3.95;;
51907;SDS011;39320;53.214;6.556;2024-01-30T09:42:18;4.40;;;4.00;;
51907;SDS011;39320;53.214;6.556;2024-01-30T09:44:51;4.35;;;4.05;;
51907;SDS011;39320;53.214;6.556;2024-01-30T09:47:19;5.07;;;4.43;;
51907;SDS011;39320;53.214;6.556;2024-01-30T09:49:45;4.47;;;4.18;;
51907;SDS011;39320;53.214;6.556;2024-01-30T09:52:11;4.70;;;4.30;;
51907;SDS011;39320;53.214;6.556;2024-01-30T09:54:37;4.47;;;4.13;;
51907;SDS011;39320;53.214;6.556;2024-01-30T09:57:04;4.30;;;3.90;;
51907;SDS011;39320;53.214;6.556;2024-01-30T09:59:30;4.45;;;4.05;;
51907;SDS011;39320;53.214;6.556;2024-01-30T10:01:57;4.70;;;4.30;;
51907;SDS011;39320;53.214;6.556;2024-01-30T10:04:23;5.20;;;3.95;;
51907;SDS011;39320;53.214;6.556;2024-01-30T10:06:49;4.00;;;3.70;;
51907;SDS011;39320;53.214;6.556;2024-01-30T10:09:16;4.97;;;4.35;;
51907;SDS011;39320;53.214;6.556;2024-01-30T10:11:41;4.75;;;4.35;;
51907;SDS011;39320;53.214;6.556;2024-01-30T10:14:07;4.93;;;4.50;;
51907;SDS011;39320;53.214;6.556;2024-01-30T10:16:36;5.50;;;5.00;;
51907;SDS011;39320;53.214;6.556;2024-01-30T10:19:02;4.38;;;3.97;;
51907;SDS011;39320;53.214;6.556;2024-01-30T10:21:29;4.57;;;4.18;;
51907;SDS011;39320;53.214;6.556;2024-01-30T10:23:55;5.03;;;4.63;;
51907;SDS011;39320;53.214;6.556;2024-01-30T10:26:21;5.03;;;4.53;;
51907;SDS011;39320;53.214;6.556;2024-01-30T10:28:47;4.47;;;4.13;;
51907;SDS011;39320;53.214;6.556;2024-01-30T10:31:17;5.80;;;4.65;;
51907;SDS011;39320;53.214;6.556;2024-01-30T10:33:44;4.25;;;3.88;;
51907;SDS011;39320;53.214;6.556;2024-01-30T10:36:10;4.78;;;4.35;;
51907;SDS011;39320;53.214;6.556;2024-01-30T10:38:40;4.82;;;4.38;;
51907;SDS011;39320;53.214;6.556;2024-01-30T10:41:08;5.18;;;4.38;;
51907;SDS011;39320;53.214;6.556;2024-01-30T10:43:40;4.60;;;4.18;;
51907;SDS011;39320;53.214;6.556;2024-01-30T10:46:14;4.40;;;4.10;;
51907;SDS011;39320;53.214;6.556;2024-01-30T10:48:44;5.03;;;3.97;;
51907;SDS011;39320;53.214;6.556;2024-01-30T10:51:16;4.00;;;3.65;;
51907;SDS011;39320;53.214;6.556;2024-01-30T10:53:43;4.40;;;4.10;;
51907;SDS011;39320;53.214;6.556;2024-01-30T10:56:12;4.32;;;3.88;;
51907;SDS011;39320;53.214;6.556;2024-01-30T10:58:39;4.80;;;4.40;;
51907;SDS011;39320;53.214;6.556;2024-01-30T11:01:05;5.03;;;4.40;;
51907;SDS011;39320;53.214;6.556;2024-01-30T11:03:32;4.32;;;3.92;;
51907;SDS011;39320;53.214;6.556;2024-01-30T11:06:02;5.03;;;4.63;;
51907;SDS011;39320;53.214;6.556;2024-01-30T11:08:28;4.45;;;3.95;;
51907;SDS011;39320;53.214;6.556;2024-01-30T11:10:57;4.65;;;4.25;;
51907;SDS011;39320;53.214;6.556;2024-01-30T11:13:30;4.97;;;4.30;;
51907;SDS011;39320;53.214;6.556;2024-01-30T11:16:03;4.22;;;3.80;;
51907;SDS011;39320;53.214;6.556;2024-01-30T11:18:30;4.70;;;4.30;;
51907;SDS011;39320;53.214;6.556;2024-01-30T11:20:57;4.72;;;4.32;;
51907;SDS011;39320;53.214;6.556;2024-01-30T11:23:23;4.32;;;4.00;;
51907;SDS011;39320;53.214;6.556;2024-01-30T11:25:52;5.35;;;3.83;;
51907;SDS011;39320;53.214;6.556;2024-01-30T11:28:18;3.90;;;3.58;;
51907;SDS011;39320;53.214;6.556;2024-01-30T11:30:45;4.35;;;3.95;;
51907;SDS011;39320;53.214;6.556;2024-01-30T11:33:13;5.82;;;3.35;;
51907;SDS011;39320;53.214;6.556;2024-01-30T11:38:06;3.83;;;3.53;;
51907;SDS011;39320;53.214;6.556;2024-01-30T11:43:08;3.17;;;2.55;;
51907;SDS011;39320;53.214;6.556;2024-01-30T11:45:35;2.63;;;2.10;;
51907;SDS011;39320;53.214;6.556;2024-01-30T11:48:01;2.75;;;2.08;;
51907;SDS011;39320;53.214;6.556;2024-01-30T11:50:35;2.40;;;2.20;;
51907;SDS011;39320;53.214;6.556;2024-01-30T11:53:03;3.38;;;2.13;;
51907;SDS011;39320;53.214;6.556;2024-01-30T11:55:30;2.03;;;1.90;;
51907;SDS011;39320;53.214;6.556;2024-01-30T11:57:59;2.63;;;2.00;;
51907;SDS011;39320;53.214;6.556;2024-01-30T12:00:25;2.00;;;1.80;;
51907;SDS011;39320;53.214;6.556;2024-01-30T12:02:51;2.03;;;1.65;;
51907;SDS011;39320;53.214;6.556;2024-01-30T12:05:21;2.15;;;1.58;;
51907;SDS011;39320;53.214;6.556;2024-01-30T12:07:47;1.75;;;1.65;;
51907;SDS011;39320;53.214;6.556;2024-01-30T12:10:13;1.40;;;1.13;;
51907;SDS011;39320;53.214;6.556;2024-01-30T12:12:40;1.17;;;1.10;;
51907;SDS011;39320;53.214;6.556;2024-01-30T12:15:08;1.55;;;1.45;;
51907;SDS011;39320;53.214;6.556;2024-01-30T12:17:34;0.88;;;0.88;;
51907;SDS011;39320;53.214;6.556;2024-01-30T12:22:39;0.68;;;0.68;;
51907;SDS011;39320;53.214;6.556;2024-01-30T12:25:09;1.05;;;1.05;;
51907;SDS011;39320;53.214;6.556;2024-01-30T12:27:36;0.68;;;0.65;;
51907;SDS011;39320;53.214;6.556;2024-01-30T12:30:06;0.73;;;0.70;;
51907;SDS011;39320;53.214;6.556;2024-01-30T12:32:36;1.30;;;0.95;;
51907;SDS011;39320;53.214;6.556;2024-01-30T12:35:04;0.82;;;0.82;;
51907;SDS011;39320;53.214;6.556;2024-01-30T12:37:33;0.52;;;0.50;;
51907;SDS011;39320;53.214;6.556;2024-01-30T12:39:59;0.60;;;0.60;;
51907;SDS011;39320;53.214;6.556;2024-01-30T12:42:26;1.02;;;0.60;;
51907;SDS011;39320;53.214;6.556;2024-01-30T12:44:52;0.77;;;0.70;;
51907;SDS011;39320;53.214;6.556;2024-01-30T12:47:18;0.70;;;0.70;;
51907;SDS011;39320;53.214;6.556;2024-01-30T12:49:46;0.65;;;0.60;;
51907;SDS011;39320;53.214;6.556;2024-01-30T12:52:13;1.33;;;0.70;;
51907;SDS011;39320;53.214;6.556;2024-01-30T12:54:41;0.63;;;0.63;;
51907;SDS011;39320;53.214;6.556;2024-01-30T12:57:07;0.60;;;0.60;;
51907;SDS011;39320;53.214;6.556;2024-01-30T12:59:33;0.60;;;0.60;;
51907;SDS011;39320;53.214;6.556;2024-01-30T13:02:00;0.60;;;0.60;;
51907;SDS011;39320;53.214;6.556;2024-01-30T13:04:26;0.90;;;0.90;;
51907;SDS011;39320;53.214;6.556;2024-01-30T13:06:53;0.70;;;0.70;;
51907;SDS011;39320;53.214;6.556;2024-01-30T13:09:18;0.70;;;0.70;;
51907;SDS011;39320;53.214;6.556;2024-01-30T13:11:44;0.75;;;0.75;;
51907;SDS011;39320;53.214;6.556;2024-01-30T13:14:10;2.00;;;0.93;;
51907;SDS011;39320;53.214;6.556;2024-01-30T13:16:36;0.80;;;0.80;;
51907;SDS011;39320;53.214;6.556;2024-01-30T13:19:02;0.90;;;0.90;;
51907;SDS011;39320;53.214;6.556;2024-01-30T13:21:28;0.70;;;0.70;;
51907;SDS011;39320;53.214;6.556;2024-01-30T13:23:54;1.05;;;0.80;;
51907;SDS011;39320;53.214;6.556;2024-01-30T13:26:20;0.77;;;0.77;;
51907;SDS011;39320;53.214;6.556;2024-01-30T13:28:46;0.73;;;0.73;;
51907;SDS011;39320;53.214;6.556;2024-01-30T13:31:12;0.80;;;0.80;;
51907;SDS011;39320;53.214;6.556;2024-01-30T13:33:41;2.20;;;0.80;;
51907;SDS011;39320;53.214;6.556;2024-01-30T13:36:07;0.80;;;0.75;;
51907;SDS011;39320;53.214;6.556;2024-01-30T13:38:34;0.60;;;0.60;;
51907;SDS011;39320;53.214;6.556;2024-01-30T13:41:00;0.93;;;0.90;;
51907;SDS011;39320;53.214;6.556;2024-01-30T13:43:26;0.90;;;0.82;;
51907;SDS011;39320;53.214;6.556;2024-01-30T13:45:52;0.80;;;0.80;;
51907;SDS011;39320;53.214;6.556;2024-01-30T13:48:19;1.02;;;1.00;;
51907;SDS011;39320;53.214;6.556;2024-01-30T13:50:44;0.73;;;0.70;;
51907;SDS011;39320;53.214;6.556;2024-01-30T13:53:11;0.70;;;0.60;;
51907;SDS011;39320;53.214;6.556;2024-01-30T13:55:37;0.60;;;0.60;;
51907;SDS011;39320;53.214;6.556;2024-01-30T13:58:05;0.95;;;0.95;;
51907;SDS011;39320;53.214;6.556;2024-01-30T14:00:31;0.77;;;0.73;;
51907;SDS011;39320;53.214;6.556;2024-01-30T14:02:58;1.08;;;1.08;;
51907;SDS011;39320;53.214;6.556;2024-01-30T14:05:25;1.05;;;0.98;;
51907;SDS011;39320;53.214;6.556;2024-01-30T14:07:53;0.90;;;0.90;;
51907;SDS011;39320;53.214;6.556;2024-01-30T14:10:19;1.60;;;1.13;;
51907;SDS011;39320;53.214;6.556;2024-01-30T14:12:45;0.90;;;0.90;;
51907;SDS011;39320;53.214;6.556;2024-01-30T14:15:13;1.02;;;0.93;;
51907;SDS011;39320;53.214;6.556;2024-01-30T14:17:40;1.05;;;1.00;;
51907;SDS011;39320;53.214;6.556;2024-01-30T14:20:06;1.20;;;1.05;;
51907;SDS011;39320;53.214;6.556;2024-01-30T14:22:35;1.20;;;0.90;;
51907;SDS011;39320;53.214;6.556;2024-01-30T14:25:02;0.80;;;0.80;;
51907;SDS011;39320;53.214;6.556;2024-01-30T14:27:31;0.95;;;0.82;;
51907;SDS011;39320;53.214;6.556;2024-01-30T14:29:57;1.00;;;0.88;;
51907;SDS011;39320;53.214;6.556;2024-01-30T14:32:23;0.65;;;0.65;;
51907;SDS011;39320;53.214;6.556;2024-01-30T14:34:50;0.80;;;0.80;;
51907;SDS011;39320;53.214;6.556;2024-01-30T14:37:16;1.23;;;1.05;;
51907;SDS011;39320;53.214;6.556;2024-01-30T14:39:42;0.80;;;0.80;;
51907;SDS011;39320;53.214;6.556;2024-01-30T14:42:07;0.80;;;0.80;;
51907;SDS011;39320;53.214;6.556;2024-01-30T14:44:33;0.80;;;0.80;;
51907;SDS011;39320;53.214;6.556;2024-01-30T14:47:00;1.23;;;1.10;;
51907;SDS011;39320;53.214;6.556;2024-01-30T14:49:26;0.85;;;0.85;;
51907;SDS011;39320;53.214;6.556;2024-01-30T14:51:52;1.38;;;1.27;;